createdAt,value
2019-04-13T00:00:08.862Z,23.1
2019-04-13T00:03:14.695Z,23.1
2019-04-13T00:06:20.637Z,23.1
2019-04-13T00:09:26.633Z,23.1
2019-04-13T00:12:32.501Z,23.1
2019-04-13T00:15:38.395Z,23.1
2019-04-13T00:18:44.406Z,23.1
2019-04-13T00:21:50.453Z,23
2019-04-13T00:24:56.439Z,23
2019-04-13T00:28:02.494Z,23
2019-04-13T00:31:08.432Z,23
2019-04-13T00:34:14.398Z,23
2019-04-13T00:37:23.259Z,23
2019-04-13T00:40:29.285Z,23
2019-04-13T00:43:35.293Z,23
2019-04-13T00:46:43.940Z,23
2019-04-13T00:49:50.058Z,23
2019-04-13T00:52:56.010Z,23
2019-04-13T00:56:02.033Z,23
2019-04-13T00:59:08.117Z,23
2019-04-13T01:02:14.125Z,22.9
2019-04-13T01:05:20.153Z,23
2019-04-13T01:08:26.173Z,23
2019-04-13T01:11:32.094Z,23
2019-04-13T01:14:37.981Z,22.9
2019-04-13T01:17:43.890Z,22.9
2019-04-13T01:20:49.804Z,22.9
2019-04-13T01:23:55.709Z,22.9
2019-04-13T01:27:01.688Z,22.9
2019-04-13T01:30:07.650Z,22.9
2019-04-13T01:33:13.582Z,22.9
2019-04-13T01:36:19.541Z,22.9
2019-04-13T01:39:25.458Z,22.9
2019-04-13T01:42:31.367Z,22.9
2019-04-13T01:45:37.352Z,22.9
2019-04-13T01:48:43.379Z,22.9
2019-04-13T01:51:49.356Z,22.9
2019-04-13T01:54:55.239Z,22.9
2019-04-13T01:58:01.176Z,22.9
2019-04-13T02:01:07.107Z,22.9
2019-04-13T02:04:13.088Z,22.8
2019-04-13T02:07:19.063Z,22.8
2019-04-13T02:10:25.007Z,22.8
2019-04-13T02:13:31.008Z,22.8
2019-04-13T02:16:36.950Z,22.8
2019-04-13T02:19:42.819Z,22.8
2019-04-13T02:22:48.833Z,22.8
2019-04-13T02:25:54.747Z,22.8
2019-04-13T02:29:00.785Z,22.8
2019-04-13T02:32:06.633Z,22.8
2019-04-13T02:35:12.557Z,22.8
2019-04-13T02:38:37.569Z,22.8
2019-04-13T02:41:43.807Z,22.8
2019-04-13T02:44:49.876Z,22.8
2019-04-13T02:47:55.986Z,22.8
2019-04-13T02:51:02.046Z,22.8
2019-04-13T02:54:08.037Z,22.8
2019-04-13T02:57:14.276Z,22.8
2019-04-13T03:00:20.253Z,22.7
2019-04-13T03:03:26.231Z,22.8
2019-04-13T03:06:32.099Z,22.7
2019-04-13T03:09:38.016Z,22.7
2019-04-13T03:12:44.095Z,22.7
2019-04-13T03:15:49.971Z,22.8
2019-04-13T03:18:55.979Z,22.7
2019-04-13T03:22:01.938Z,22.7
2019-04-13T03:25:07.852Z,22.7
2019-04-13T03:28:13.821Z,22.7
2019-04-13T03:31:19.847Z,22.7
2019-04-13T03:34:25.967Z,22.7
2019-04-13T03:37:32.034Z,22.7
2019-04-13T03:40:37.953Z,22.7
2019-04-13T03:43:43.870Z,22.7
2019-04-13T03:46:49.886Z,22.7
2019-04-13T03:49:55.812Z,22.7
2019-04-13T03:53:01.812Z,22.7
2019-04-13T03:56:07.786Z,22.7
2019-04-13T03:59:13.763Z,22.7
2019-04-13T04:02:19.627Z,22.7
2019-04-13T04:05:25.531Z,22.7
2019-04-13T04:08:31.574Z,22.7
2019-04-13T04:11:37.458Z,22.7
2019-04-13T04:14:43.477Z,22.7
2019-04-13T04:17:49.381Z,22.7
2019-04-13T04:20:55.395Z,22.7
2019-04-13T04:24:01.520Z,22.7
2019-04-13T04:27:07.565Z,22.7
2019-04-13T04:30:13.491Z,22.8
2019-04-13T04:33:19.378Z,22.8
2019-04-13T04:36:25.349Z,22.8
2019-04-13T04:39:31.303Z,22.8
2019-04-13T04:42:37.232Z,22.8
2019-04-13T04:45:43.170Z,22.8
2019-04-13T04:48:49.092Z,22.8
2019-04-13T04:51:55.093Z,22.8
2019-04-13T04:55:01.012Z,22.8
2019-04-13T04:58:07.063Z,22.8
2019-04-13T05:01:13.081Z,22.8
2019-04-13T05:04:18.998Z,22.8
2019-04-13T05:07:24.934Z,22.8
2019-04-13T05:10:30.897Z,22.8
2019-04-13T05:13:36.864Z,22.8
2019-04-13T05:16:42.713Z,22.9
2019-04-13T05:19:48.640Z,23
2019-04-13T05:22:54.628Z,23
2019-04-13T05:26:00.518Z,23
2019-04-13T05:29:06.519Z,23
2019-04-13T05:32:12.460Z,22.9
2019-04-13T05:35:18.384Z,22.9
2019-04-13T05:38:24.418Z,22.9
2019-04-13T05:41:30.374Z,22.9
2019-04-13T05:44:36.315Z,22.9
2019-04-13T05:47:42.282Z,22.9
2019-04-13T05:50:48.226Z,22.9
2019-04-13T05:53:54.142Z,22.9
2019-04-13T05:57:03.074Z,22.9
2019-04-13T06:00:09.062Z,22.9
2019-04-13T06:03:15.022Z,22.9
2019-04-13T06:06:20.953Z,22.9
2019-04-13T06:09:27.112Z,22.9
2019-04-13T06:12:33.159Z,22.9
2019-04-13T06:15:39.273Z,23
2019-04-13T06:18:45.300Z,23
2019-04-13T06:21:55.426Z,23
2019-04-13T06:25:01.351Z,23
2019-04-13T06:28:14.520Z,23
2019-04-13T06:31:20.608Z,23
2019-04-13T06:34:26.527Z,23
2019-04-13T06:37:32.558Z,23
2019-04-13T06:40:41.115Z,23
2019-04-13T06:43:47.111Z,23
2019-04-13T06:46:53.172Z,23
2019-04-13T06:49:59.035Z,23
2019-04-13T06:53:07.153Z,23
2019-04-13T06:56:13.848Z,23
2019-04-13T06:59:19.949Z,23
2019-04-13T07:02:25.942Z,23
2019-04-13T07:05:32.289Z,23
2019-04-13T07:08:38.781Z,23
2019-04-13T07:11:44.946Z,23.1
2019-04-13T07:14:53.425Z,23.1
2019-04-13T07:17:59.519Z,23.1
2019-04-13T07:21:05.482Z,23.1
2019-04-13T07:24:11.524Z,23.1
2019-04-13T07:27:20.609Z,23.1
2019-04-13T07:30:26.590Z,23.1
2019-04-13T07:33:32.565Z,23.2
2019-04-13T07:36:41.158Z,23.1
2019-04-13T07:39:48.798Z,23.1
2019-04-13T07:42:54.864Z,23.2
2019-04-13T07:46:03.626Z,23.2
2019-04-13T07:49:13.670Z,23.2
2019-04-13T07:52:20.021Z,23.2
2019-04-13T07:55:31.000Z,23.3
2019-04-13T07:58:40.020Z,23.3
2019-04-13T08:01:56.389Z,23.3
2019-04-13T08:05:02.911Z,23.3
2019-04-13T08:08:08.917Z,23.3
2019-04-13T08:11:14.853Z,23.4
2019-04-13T08:14:21.127Z,23.4
2019-04-13T08:17:27.070Z,23.4
2019-04-13T08:20:34.234Z,23.4
2019-04-13T08:23:40.455Z,23.4
2019-04-13T08:26:48.895Z,23.5
2019-04-13T08:29:54.962Z,23.5
2019-04-13T08:33:01.177Z,23.5
2019-04-13T08:36:07.199Z,23.5
2019-04-13T08:39:14.280Z,23.5
2019-04-13T08:42:25.754Z,23.6
2019-04-13T08:45:32.973Z,23.6
2019-04-13T08:48:38.873Z,23.6
2019-04-13T08:51:44.779Z,23.6
2019-04-13T08:54:50.684Z,23.6
2019-04-13T08:57:56.769Z,23.6
2019-04-13T09:01:02.756Z,23.6
2019-04-13T09:04:08.680Z,23.6
2019-04-13T09:07:15.108Z,23.6
2019-04-13T09:10:26.379Z,23.7
2019-04-13T09:13:42.210Z,23.7
2019-04-13T09:16:53.589Z,23.7
2019-04-13T09:20:03.611Z,23.7
2019-04-13T09:23:16.371Z,23.7
2019-04-13T09:26:24.435Z,23.7
2019-04-13T09:29:37.923Z,23.7
2019-04-13T09:32:49.208Z,23.7
2019-04-13T09:35:56.500Z,23.7
2019-04-13T09:39:03.020Z,23.7
2019-04-13T09:42:10.647Z,23.7
2019-04-13T09:45:17.133Z,23.8
2019-04-13T09:48:23.060Z,23.7
2019-04-13T09:51:29.041Z,23.7
2019-04-13T09:54:34.908Z,23.8
2019-04-13T09:57:45.420Z,23.7
2019-04-13T10:00:52.549Z,23.7
2019-04-13T10:04:02.915Z,23.7
2019-04-13T10:07:11.055Z,23.7
2019-04-13T10:10:17.058Z,23.7
2019-04-13T10:13:23.081Z,23.7
2019-04-13T10:16:28.975Z,23.8
2019-04-13T10:19:35.033Z,23.8
2019-04-13T10:22:44.040Z,23.8
2019-04-13T10:25:50.167Z,23.7
2019-04-13T10:28:56.139Z,23.8
2019-04-13T10:32:02.155Z,23.8
2019-04-13T10:35:08.117Z,23.7
2019-04-13T10:38:14.064Z,23.8
2019-04-13T10:41:20.095Z,23.8
2019-04-13T10:44:26.078Z,23.8
2019-04-13T10:47:32.062Z,23.8
2019-04-13T10:50:38.054Z,23.8
2019-04-13T10:53:44.041Z,23.7
2019-04-13T10:56:50.015Z,23.8
2019-04-13T10:59:58.284Z,23.7
2019-04-13T11:03:04.513Z,23.7
2019-04-13T11:06:10.485Z,23.7
2019-04-13T11:09:21.572Z,23.7
2019-04-13T11:12:33.855Z,23.7
2019-04-13T11:15:41.797Z,23.7
2019-04-13T11:18:50.643Z,23.7
2019-04-13T11:21:56.594Z,23.7
2019-04-13T11:25:02.659Z,23.7
2019-04-13T11:28:08.642Z,23.7
2019-04-13T11:31:14.541Z,23.7
2019-04-13T11:34:29.003Z,23.7
2019-04-13T11:37:35.697Z,23.7
2019-04-13T11:40:41.764Z,23.6
2019-04-13T11:43:47.651Z,23.7
2019-04-13T11:46:53.831Z,23.7
2019-04-13T11:49:59.734Z,23.6
2019-04-13T11:53:05.740Z,23.6
2019-04-13T11:56:11.774Z,23.6
2019-04-13T11:59:17.644Z,23.6
2019-04-13T12:02:23.577Z,23.6
2019-04-13T12:05:32.757Z,23.6
2019-04-13T12:08:38.758Z,23.6
2019-04-13T12:11:44.755Z,23.6
2019-04-13T12:14:51.751Z,23.6
2019-04-13T12:17:57.955Z,23.6
2019-04-13T12:21:03.929Z,23.6
2019-04-13T12:24:09.942Z,23.6
2019-04-13T12:27:15.898Z,23.6
2019-04-13T12:30:21.801Z,23.6
2019-04-13T12:33:27.728Z,23.6
2019-04-13T12:36:33.835Z,23.6
2019-04-13T12:39:40.531Z,23.6
2019-04-13T12:42:46.607Z,23.6
2019-04-13T12:45:52.566Z,23.6
2019-04-13T12:48:58.535Z,23.6
2019-04-13T12:52:04.390Z,23.6
2019-04-13T12:55:14.010Z,23.6
2019-04-13T12:58:23.738Z,23.6
2019-04-13T13:01:32.458Z,23.6
2019-04-13T13:04:38.461Z,23.6
2019-04-13T13:07:44.330Z,23.6
2019-04-13T13:10:50.279Z,23.6
2019-04-13T13:13:56.219Z,23.5
2019-04-13T13:17:02.183Z,23.5
2019-04-13T13:20:08.127Z,23.5
2019-04-13T13:23:19.015Z,23.5
2019-04-13T13:26:24.946Z,23.5
2019-04-13T13:29:30.925Z,23.5
2019-04-13T13:32:36.866Z,23.5
2019-04-13T13:35:42.827Z,23.5
2019-04-13T13:38:48.842Z,23.5
2019-04-13T13:41:54.697Z,23.4
2019-04-13T13:45:00.622Z,23.4
2019-04-13T13:48:06.611Z,23.4
2019-04-13T13:51:12.527Z,23.4
2019-04-13T13:54:18.522Z,23.4
2019-04-13T13:57:24.492Z,23.4
2019-04-13T14:00:30.449Z,23.4
2019-04-13T14:03:36.365Z,23.3
2019-04-13T14:06:42.327Z,23.3
2019-04-13T14:09:48.234Z,23.3
2019-04-13T14:12:54.252Z,23.3
2019-04-13T14:16:00.273Z,23.3
2019-04-13T14:19:06.419Z,23.3
2019-04-13T14:22:12.381Z,23.3
2019-04-13T14:25:18.319Z,23.2
2019-04-13T14:28:24.299Z,23.2
2019-04-13T14:31:30.223Z,23.2
2019-04-13T14:34:36.329Z,23.2
2019-04-13T14:37:43.064Z,23.2
2019-04-13T14:40:55.913Z,23.1
2019-04-13T14:44:02.197Z,23.1
2019-04-13T14:47:08.285Z,23.1
2019-04-13T14:50:14.494Z,23.1
2019-04-13T14:53:20.432Z,23.1
2019-04-13T14:56:26.387Z,23.1
2019-04-13T14:59:36.917Z,23.1
2019-04-13T15:02:42.925Z,23
2019-04-13T15:05:48.907Z,23
2019-04-13T15:08:54.835Z,23
2019-04-13T15:12:00.669Z,23
2019-04-13T15:15:07.121Z,23
2019-04-13T15:18:18.670Z,23
2019-04-13T15:21:33.611Z,22.9
2019-04-13T15:24:52.067Z,22.9
2019-04-13T15:28:15.171Z,22.9
2019-04-13T15:31:38.255Z,22.9
2019-04-13T15:34:51.730Z,22.8
2019-04-13T15:38:18.056Z,22.8
2019-04-13T15:41:50.302Z,22.8
2019-04-13T15:46:27.300Z,22.8
2019-04-13T15:49:42.399Z,22.8
2019-04-13T15:52:51.618Z,22.8
2019-04-13T15:56:02.472Z,22.7
2019-04-13T15:59:16.495Z,22.7
2019-04-13T16:02:29.403Z,22.7
2019-04-13T16:05:45.215Z,22.7
2019-04-13T16:08:55.497Z,22.7
2019-04-13T16:12:07.507Z,22.7
2019-04-13T16:15:22.842Z,22.6
2019-04-13T16:18:32.668Z,22.6
2019-04-13T16:21:44.014Z,22.6
2019-04-13T16:24:54.666Z,22.6
2019-04-13T16:28:04.435Z,22.6
2019-04-13T16:31:20.784Z,22.5
2019-04-13T16:34:32.266Z,22.5
2019-04-13T16:37:42.164Z,22.5
2019-04-13T16:40:52.137Z,22.5
2019-04-13T16:44:02.058Z,22.5
2019-04-13T16:47:12.910Z,22.5
2019-04-13T16:50:23.950Z,22.4
2019-04-13T16:53:33.708Z,22.4
2019-04-13T16:56:43.825Z,22.4
2019-04-13T16:59:53.750Z,22.4
2019-04-13T17:03:03.334Z,22.4
2019-04-13T17:06:14.773Z,22.4
2019-04-13T17:09:32.551Z,22.4
2019-04-13T17:12:44.739Z,22.4
2019-04-13T17:15:58.454Z,22.3
2019-04-13T17:19:08.431Z,22.3
2019-04-13T17:22:18.194Z,22.3
2019-04-13T17:25:28.984Z,22.3
2019-04-13T17:28:39.842Z,22.3
2019-04-13T17:31:49.860Z,22.3
2019-04-13T17:35:01.352Z,22.3
2019-04-13T17:38:11.305Z,22.3
2019-04-13T17:41:23.100Z,22.3
2019-04-13T17:44:33.176Z,22.3
2019-04-13T17:47:45.182Z,22.3
2019-04-13T17:50:56.165Z,22.3
2019-04-13T17:54:06.625Z,22.3
2019-04-13T17:57:17.902Z,22.3
2019-04-13T18:00:28.694Z,22.3
2019-04-13T18:03:38.645Z,22.3
2019-04-13T18:06:48.882Z,22.2
2019-04-13T18:09:58.011Z,22.2
2019-04-13T18:13:07.948Z,22.2
2019-04-13T18:16:19.212Z,22.2
2019-04-13T18:19:30.706Z,22.2
2019-04-13T18:22:41.402Z,22.2
2019-04-13T18:25:57.812Z,22.2
2019-04-13T18:29:15.096Z,22.2
2019-04-13T18:32:26.859Z,22.2
2019-04-13T18:35:37.634Z,22.2
2019-04-13T18:38:56.125Z,22.2
2019-04-13T18:42:08.095Z,22.2
2019-04-13T18:45:18.233Z,22.2
2019-04-13T18:48:31.825Z,22.2
2019-04-13T18:51:46.308Z,22.1
2019-04-13T18:54:55.496Z,22.2
2019-04-13T18:58:09.433Z,22.1
2019-04-13T19:01:24.996Z,22.2
2019-04-13T19:04:35.013Z,22.1
2019-04-13T19:07:40.926Z,22.1
2019-04-13T19:10:46.891Z,22.1
2019-04-13T19:13:53.044Z,22.1
2019-04-13T19:16:59.071Z,22.1
2019-04-13T19:20:04.964Z,22.1
2019-04-13T19:23:10.932Z,22.1
2019-04-13T19:26:16.879Z,22.1
2019-04-13T19:29:22.894Z,22.1
2019-04-13T19:32:28.850Z,22.1
2019-04-13T19:35:34.890Z,22.1
2019-04-13T19:38:40.824Z,22.1
2019-04-13T19:41:46.825Z,22.1
2019-04-13T19:44:52.740Z,22.1
2019-04-13T19:47:58.796Z,22
2019-04-13T19:51:04.807Z,22.1
2019-04-13T19:54:10.726Z,22.1
2019-04-13T19:57:16.683Z,22.1
2019-04-13T20:00:22.651Z,22.1
2019-04-13T20:03:28.794Z,22
2019-04-13T20:06:34.836Z,22
2019-04-13T20:09:40.729Z,22
2019-04-13T20:12:46.879Z,22
2019-04-13T20:15:59.359Z,22
2019-04-13T20:19:11.607Z,22
2019-04-13T20:22:17.706Z,22
2019-04-13T20:25:24.459Z,22
2019-04-13T20:28:41.547Z,22
2019-04-13T20:31:52.843Z,22
2019-04-13T20:35:04.236Z,22
2019-04-13T20:38:15.513Z,22
2019-04-13T20:41:38.912Z,22
2019-04-13T20:45:33.600Z,22
2019-04-13T20:48:40.039Z,22
2019-04-13T20:51:50.149Z,22
2019-04-13T20:54:58.092Z,22
2019-04-13T20:58:16.080Z,22
2019-04-13T21:01:26.010Z,22
2019-04-13T21:04:37.165Z,22
2019-04-13T21:07:47.137Z,22
2019-04-13T21:10:58.191Z,22
2019-04-13T21:14:11.134Z,22
2019-04-13T21:17:57.936Z,22
2019-04-13T21:21:08.597Z,21.9
2019-04-13T21:24:18.347Z,22
2019-04-13T21:27:29.255Z,21.9
2019-04-13T21:30:40.247Z,22
2019-04-13T21:33:50.096Z,21.9
2019-04-13T21:37:05.149Z,21.9
2019-04-13T21:40:15.016Z,21.9
2019-04-13T21:43:25.975Z,21.9
2019-04-13T21:46:43.599Z,21.9
2019-04-13T21:49:53.635Z,21.9
2019-04-13T21:53:05.720Z,21.9
2019-04-13T21:56:16.631Z,21.9
2019-04-13T21:59:33.016Z,21.9
2019-04-13T22:02:44.212Z,21.9
2019-04-13T22:05:55.161Z,21.9
2019-04-13T22:09:06.554Z,21.8
2019-04-13T22:12:17.733Z,21.9
2019-04-13T22:15:28.809Z,21.9
2019-04-13T22:18:38.777Z,21.9
2019-04-13T22:21:49.864Z,21.9
2019-04-13T22:25:01.318Z,21.8
2019-04-13T22:28:15.019Z,21.9
2019-04-13T22:31:28.888Z,21.8
2019-04-13T22:34:38.556Z,21.8
2019-04-13T22:37:49.561Z,21.8
2019-04-13T22:41:00.874Z,21.8
2019-04-13T22:44:11.933Z,21.8
2019-04-13T22:47:21.528Z,21.8
2019-04-13T22:50:31.149Z,21.8
2019-04-13T22:53:42.132Z,21.8
2019-04-13T22:56:53.451Z,21.8
2019-04-13T23:00:04.598Z,21.8
2019-04-13T23:03:15.919Z,21.8
2019-04-13T23:06:27.137Z,21.8
2019-04-13T23:09:37.079Z,21.8
2019-04-13T23:12:48.647Z,21.8
2019-04-13T23:15:59.945Z,21.8
2019-04-13T23:19:09.639Z,21.8
2019-04-13T23:22:21.215Z,21.8
2019-04-13T23:25:31.235Z,21.8
2019-04-13T23:28:41.030Z,21.8
2019-04-13T23:31:52.112Z,21.8
2019-04-13T23:35:04.525Z,21.8
2019-04-13T23:38:16.073Z,21.8
2019-04-13T23:41:25.773Z,21.8
2019-04-13T23:44:39.794Z,21.8
2019-04-13T23:47:49.868Z,21.8
2019-04-13T23:51:01.105Z,21.8
2019-04-13T23:54:11.122Z,21.8
2019-04-13T23:57:22.502Z,21.8
